createdAt,value
2017-07-20T00:00:15.417Z,25.17
2017-07-20T00:02:42.913Z,26.20
2017-07-20T00:05:11.115Z,24.43
2017-07-20T00:07:38.550Z,24.85
2017-07-20T00:10:06.779Z,23.65
2017-07-20T00:12:34.255Z,24.10
2017-07-20T00:15:01.684Z,23.48
2017-07-20T00:17:29.155Z,23.08
2017-07-20T00:19:56.613Z,23.60
2017-07-20T00:22:24.149Z,23.70
2017-07-20T00:27:42.633Z,22.05
2017-07-20T00:30:10.086Z,26.10
2017-07-20T00:32:37.522Z,24.03
2017-07-20T00:35:05.186Z,23.40
2017-07-20T00:37:32.625Z,22.15
2017-07-20T00:40:00.114Z,22.25
2017-07-20T00:42:27.554Z,24.27
2017-07-20T00:44:55.027Z,23.77
2017-07-20T00:47:22.471Z,22.70
2017-07-20T00:49:49.945Z,23.27
2017-07-20T00:52:17.410Z,22.87
2017-07-20T00:54:44.863Z,23.38
2017-07-20T00:57:12.432Z,23.92
2017-07-20T00:59:39.876Z,24.02
2017-07-20T01:02:07.341Z,23.17
2017-07-20T01:04:34.778Z,23.80
2017-07-20T01:07:02.239Z,22.08
2017-07-20T01:09:29.774Z,22.15
2017-07-20T01:11:57.282Z,22.00
2017-07-20T01:14:24.725Z,22.13
2017-07-20T01:16:52.272Z,24.02
2017-07-20T01:19:19.728Z,24.50
2017-07-20T01:21:47.175Z,25.00
2017-07-20T01:24:14.657Z,25.02
2017-07-20T01:26:42.196Z,26.60
2017-07-20T01:29:09.656Z,27.70
2017-07-20T01:31:37.114Z,25.45
2017-07-20T01:34:04.564Z,26.25
2017-07-20T01:36:32.027Z,28.15
2017-07-20T01:38:59.475Z,27.20
2017-07-20T01:41:26.957Z,28.90
2017-07-20T01:43:54.403Z,26.87
2017-07-20T01:46:22.897Z,27.90
2017-07-20T01:48:50.427Z,27.20
2017-07-20T01:51:17.881Z,25.48
2017-07-20T01:53:45.372Z,24.30
2017-07-20T01:56:13.626Z,25.23
2017-07-20T01:58:41.084Z,25.62
2017-07-20T02:01:08.631Z,26.60
2017-07-20T02:03:36.194Z,26.98
2017-07-20T02:06:03.652Z,26.48
2017-07-20T02:08:31.099Z,25.55
2017-07-20T02:10:58.569Z,26.90
2017-07-20T02:13:26.019Z,27.40
2017-07-20T02:15:53.652Z,26.70
2017-07-20T02:18:21.075Z,27.93
2017-07-20T02:20:49.319Z,29.60
2017-07-20T02:23:17.182Z,28.55
2017-07-20T02:25:44.608Z,28.73
2017-07-20T02:28:12.089Z,27.85
2017-07-20T02:30:39.537Z,29.60
2017-07-20T02:33:06.991Z,27.20
2017-07-20T02:35:34.442Z,27.52
2017-07-20T02:38:01.923Z,25.92
2017-07-20T02:40:29.382Z,25.27
2017-07-20T02:42:56.825Z,26.10
2017-07-20T02:45:24.308Z,27.67
2017-07-20T02:47:51.747Z,25.80
2017-07-20T02:50:19.298Z,27.80
2017-07-20T02:52:46.756Z,26.73
2017-07-20T02:55:14.189Z,25.33
2017-07-20T02:57:41.631Z,24.65
2017-07-20T03:00:09.134Z,25.80
2017-07-20T03:02:36.602Z,24.30
2017-07-20T03:05:04.815Z,27.40
2017-07-20T03:07:32.267Z,27.00
2017-07-20T03:09:59.778Z,25.50
2017-07-20T03:12:27.336Z,23.75
2017-07-20T03:14:54.775Z,23.45
2017-07-20T03:17:22.227Z,23.20
2017-07-20T03:19:49.688Z,24.23
2017-07-20T03:22:29.149Z,23.40
2017-07-20T03:24:56.588Z,24.30
2017-07-20T03:27:24.049Z,23.67
2017-07-20T03:29:51.614Z,24.25
2017-07-20T03:32:19.066Z,23.55
2017-07-20T03:34:46.510Z,22.98
2017-07-20T03:37:13.994Z,24.80
2017-07-20T03:39:41.446Z,24.10
2017-07-20T03:42:08.911Z,23.62
2017-07-20T03:44:36.394Z,23.80
2017-07-20T03:47:03.891Z,24.30
2017-07-20T03:49:31.383Z,24.20
2017-07-20T03:51:58.830Z,26.05
2017-07-20T03:54:26.290Z,24.53
2017-07-20T03:56:53.719Z,26.50
2017-07-20T03:59:21.175Z,24.10
2017-07-20T04:01:48.619Z,25.40
2017-07-20T04:04:16.172Z,26.30
2017-07-20T04:06:43.668Z,26.15
2017-07-20T04:09:11.103Z,26.45
2017-07-20T04:11:38.663Z,26.23
2017-07-20T04:14:06.220Z,25.80
2017-07-20T04:16:33.710Z,24.77
2017-07-20T04:19:01.969Z,25.67
2017-07-20T04:21:29.526Z,26.67
2017-07-20T04:23:57.075Z,28.00
2017-07-20T04:26:24.529Z,27.75
2017-07-20T04:28:52.004Z,29.12
2017-07-20T04:31:19.462Z,27.42
2017-07-20T04:33:47.182Z,26.35
2017-07-20T04:36:14.687Z,24.85
2017-07-20T04:38:42.123Z,25.15
2017-07-20T04:41:09.594Z,24.23
2017-07-20T04:43:37.119Z,25.98
2017-07-20T04:46:04.584Z,22.55
2017-07-20T04:48:32.078Z,22.20
2017-07-20T04:51:00.440Z,22.35
2017-07-20T04:53:28.112Z,22.73
2017-07-20T04:55:56.344Z,21.20
2017-07-20T04:58:23.833Z,19.55
2017-07-20T05:00:51.268Z,20.58
2017-07-20T05:03:18.732Z,20.33
2017-07-20T05:05:46.188Z,19.60
2017-07-20T05:08:13.651Z,19.20
2017-07-20T05:10:41.099Z,17.73
2017-07-20T05:13:08.543Z,21.23
2017-07-20T05:15:35.986Z,19.00
2017-07-20T05:18:03.464Z,18.98
2017-07-20T05:20:30.904Z,19.03
2017-07-20T05:22:58.373Z,18.40
2017-07-20T05:25:25.834Z,18.27
2017-07-20T05:27:53.273Z,19.15
2017-07-20T05:30:20.851Z,17.77
2017-07-20T05:32:48.440Z,21.08
2017-07-20T05:35:15.938Z,18.33
2017-07-20T05:37:43.428Z,19.20
2017-07-20T05:40:10.976Z,21.25
2017-07-20T05:42:38.439Z,18.73
2017-07-20T05:45:05.908Z,19.37
2017-07-20T05:47:33.459Z,19.60
2017-07-20T05:50:00.982Z,20.40
2017-07-20T05:52:28.473Z,18.95
2017-07-20T05:54:55.933Z,19.95
2017-07-20T05:57:23.379Z,19.45
2017-07-20T05:59:50.824Z,20.45
2017-07-20T06:02:18.273Z,20.37
2017-07-20T06:04:45.782Z,20.15
2017-07-20T06:07:14.100Z,20.17
2017-07-20T06:09:41.551Z,20.12
2017-07-20T06:12:08.987Z,21.92
2017-07-20T06:14:36.464Z,23.10
2017-07-20T06:17:03.894Z,22.70
2017-07-20T06:19:31.481Z,20.62
2017-07-20T06:21:59.000Z,21.10
2017-07-20T06:24:27.243Z,22.08
2017-07-20T06:26:54.706Z,22.48
2017-07-20T06:29:22.355Z,22.20
2017-07-20T06:31:49.910Z,21.55
2017-07-20T06:34:17.362Z,21.55
2017-07-20T06:36:44.827Z,22.58
2017-07-20T06:39:12.261Z,23.40
2017-07-20T06:41:39.932Z,27.25
2017-07-20T06:44:07.395Z,22.95
2017-07-20T06:46:34.866Z,21.83
2017-07-20T06:49:02.389Z,22.48
2017-07-20T06:51:29.837Z,22.83
2017-07-20T06:53:57.343Z,22.42
2017-07-20T06:56:24.800Z,22.33
2017-07-20T06:58:52.240Z,21.90
2017-07-20T07:01:19.739Z,22.80
2017-07-20T07:03:47.198Z,23.58
2017-07-20T07:06:14.653Z,22.70
2017-07-20T07:08:42.113Z,23.25
2017-07-20T07:11:09.617Z,23.10
2017-07-20T07:13:37.260Z,23.00
2017-07-20T07:16:04.709Z,25.40
2017-07-20T07:18:32.162Z,23.45
2017-07-20T07:20:59.606Z,24.30
2017-07-20T07:23:27.142Z,22.23
2017-07-20T07:25:54.714Z,21.12
2017-07-20T07:28:22.240Z,23.60
2017-07-20T07:30:49.729Z,21.83
2017-07-20T07:33:17.267Z,21.33
2017-07-20T07:35:45.532Z,21.05
2017-07-20T07:38:13.004Z,21.27
2017-07-20T07:40:40.486Z,22.27
2017-07-20T07:43:08.025Z,22.92
2017-07-20T07:45:36.308Z,26.03
2017-07-20T07:48:04.579Z,27.55
2017-07-20T07:50:32.834Z,25.48
2017-07-20T07:53:00.286Z,27.25
2017-07-20T07:55:27.905Z,25.45
2017-07-20T07:57:55.351Z,24.02
2017-07-20T08:00:22.837Z,25.05
2017-07-20T08:02:50.329Z,25.02
2017-07-20T08:05:17.823Z,28.73
2017-07-20T08:07:45.272Z,30.23
2017-07-20T08:10:12.730Z,27.70
2017-07-20T08:12:40.238Z,28.45
2017-07-20T08:15:07.684Z,27.52
2017-07-20T08:17:35.135Z,27.85
2017-07-20T08:20:02.631Z,27.17
2017-07-20T08:22:30.871Z,25.15
2017-07-20T08:24:58.315Z,24.80
2017-07-20T08:27:25.784Z,25.55
2017-07-20T08:29:53.318Z,23.87
2017-07-20T08:32:20.803Z,25.30
2017-07-20T08:34:48.250Z,26.70
2017-07-20T08:37:15.700Z,26.12
2017-07-20T08:39:43.244Z,22.48
2017-07-20T08:42:10.689Z,22.85
2017-07-20T08:44:38.127Z,22.30
2017-07-20T08:47:05.572Z,21.95
2017-07-20T08:49:33.830Z,21.53
2017-07-20T08:52:01.394Z,21.45
2017-07-20T08:54:28.960Z,19.50
2017-07-20T08:56:56.501Z,19.92
2017-07-20T08:59:24.066Z,19.40
2017-07-20T09:01:51.518Z,18.83
2017-07-20T09:04:19.139Z,18.65
2017-07-20T09:06:46.578Z,19.80
2017-07-20T09:09:14.123Z,17.62
2017-07-20T09:11:41.588Z,19.05
2017-07-20T09:14:09.031Z,18.45
2017-07-20T09:16:36.481Z,18.33
2017-07-20T09:19:04.824Z,19.30
2017-07-20T09:21:32.380Z,18.80
2017-07-20T09:23:59.830Z,18.35
2017-07-20T09:26:27.285Z,18.92
2017-07-20T09:28:54.735Z,18.17
2017-07-20T09:31:22.244Z,17.98
2017-07-20T09:33:50.499Z,19.48
2017-07-20T09:36:18.064Z,17.60
2017-07-20T09:38:45.498Z,17.98
2017-07-20T09:41:12.923Z,16.73
2017-07-20T09:43:40.492Z,17.37
2017-07-20T09:46:08.014Z,18.33
2017-07-20T09:48:36.246Z,20.05
2017-07-20T09:51:03.799Z,19.30
2017-07-20T09:53:31.266Z,22.27
2017-07-20T09:55:58.711Z,21.67
2017-07-20T09:58:26.171Z,23.17
2017-07-20T10:00:53.657Z,21.30
2017-07-20T10:03:21.910Z,19.58
2017-07-20T10:05:49.432Z,18.95
2017-07-20T10:08:16.902Z,20.10
2017-07-20T10:10:44.360Z,19.62
2017-07-20T10:13:11.790Z,21.25
2017-07-20T10:15:39.257Z,21.73
2017-07-20T10:18:06.744Z,19.00
2017-07-20T10:20:34.331Z,18.15
2017-07-20T10:23:02.753Z,17.87
2017-07-20T10:25:30.191Z,18.70
2017-07-20T10:27:57.644Z,14.68
2017-07-20T10:30:25.851Z,16.40
2017-07-20T10:32:53.333Z,16.75
2017-07-20T10:35:20.774Z,17.40
2017-07-20T10:37:48.244Z,18.67
2017-07-20T10:40:15.716Z,18.10
2017-07-20T10:42:43.194Z,16.23
2017-07-20T10:45:11.412Z,16.30
2017-07-20T10:47:38.886Z,15.75
2017-07-20T10:50:06.447Z,15.88
2017-07-20T10:52:33.900Z,17.58
2017-07-20T10:55:01.351Z,21.60
2017-07-20T10:57:28.803Z,20.73
2017-07-20T10:59:56.285Z,21.70
2017-07-20T11:02:23.820Z,22.23
2017-07-20T11:04:51.287Z,21.90
2017-07-20T11:07:18.838Z,21.73
2017-07-20T11:09:46.332Z,23.70
2017-07-20T11:12:14.557Z,19.80
2017-07-20T11:14:42.028Z,20.37
2017-07-20T11:17:09.459Z,20.60
2017-07-20T11:19:36.962Z,22.13
2017-07-20T11:22:04.469Z,17.67
2017-07-20T11:24:31.919Z,17.57
2017-07-20T11:26:59.371Z,17.58
2017-07-20T11:29:26.865Z,17.37
2017-07-20T11:31:54.319Z,19.20
2017-07-20T11:34:21.755Z,19.42
2017-07-20T11:36:49.994Z,17.80
2017-07-20T11:39:18.211Z,15.45
2017-07-20T11:41:45.675Z,15.05
2017-07-20T11:44:13.129Z,16.40
2017-07-20T11:46:40.943Z,16.03
2017-07-20T11:49:08.480Z,15.30
2017-07-20T11:51:35.948Z,15.00
2017-07-20T11:54:04.163Z,15.40
2017-07-20T11:56:31.659Z,15.25
2017-07-20T11:58:59.114Z,15.50
2017-07-20T12:01:26.602Z,15.80
2017-07-20T12:03:54.802Z,17.08
2017-07-20T12:06:22.292Z,13.70
2017-07-20T12:08:49.754Z,15.00
2017-07-20T12:11:17.299Z,14.27
2017-07-20T12:13:44.753Z,13.00
2017-07-20T12:16:12.195Z,14.20
2017-07-20T12:18:39.650Z,13.25
2017-07-20T12:21:07.136Z,14.07
2017-07-20T12:23:34.613Z,14.20
2017-07-20T12:26:02.162Z,13.68
2017-07-20T12:28:29.723Z,15.45
2017-07-20T12:30:57.165Z,15.60
2017-07-20T12:33:24.690Z,15.77
2017-07-20T12:35:52.151Z,17.08
2017-07-20T12:38:19.625Z,17.30
2017-07-20T12:40:47.187Z,20.07
2017-07-20T12:43:14.622Z,18.30
2017-07-20T12:45:42.068Z,16.77
2017-07-20T12:48:09.612Z,17.70
2017-07-20T12:50:37.107Z,16.17
2017-07-20T12:53:04.559Z,16.00
2017-07-20T12:55:32.007Z,14.73
2017-07-20T12:57:59.466Z,14.63
2017-07-20T13:00:26.921Z,14.30
2017-07-20T13:02:54.405Z,16.73
2017-07-20T13:05:21.878Z,13.93
2017-07-20T13:07:49.311Z,14.27
2017-07-20T13:10:16.783Z,14.20
2017-07-20T13:12:44.243Z,13.98
2017-07-20T13:15:11.892Z,13.68
2017-07-20T13:17:39.334Z,12.88
2017-07-20T13:20:06.772Z,11.50
2017-07-20T13:22:34.277Z,11.50
2017-07-20T13:25:02.500Z,12.20
2017-07-20T13:27:29.991Z,11.10
2017-07-20T13:29:57.439Z,12.07
2017-07-20T13:32:25.007Z,10.50
2017-07-20T13:34:52.602Z,10.73
2017-07-20T13:37:20.127Z,11.43
2017-07-20T13:39:47.579Z,12.20
2017-07-20T13:42:15.105Z,12.90
2017-07-20T13:44:42.537Z,12.00
2017-07-20T13:47:09.975Z,12.10
2017-07-20T13:49:38.291Z,11.00
2017-07-20T13:52:05.730Z,11.80
2017-07-20T13:54:33.275Z,10.30
2017-07-20T13:57:01.483Z,12.50
2017-07-20T13:59:28.985Z,12.02
2017-07-20T14:01:56.699Z,12.48
2017-07-20T14:04:24.140Z,12.88
2017-07-20T14:06:51.639Z,10.77
2017-07-20T14:09:19.273Z,11.70
2017-07-20T14:11:47.343Z,12.30
2017-07-20T14:14:15.001Z,11.48
2017-07-20T14:16:43.177Z,10.88
2017-07-20T14:19:11.492Z,11.70
2017-07-20T14:21:39.050Z,10.52
2017-07-20T14:24:06.632Z,11.60
2017-07-20T14:26:34.166Z,12.88
2017-07-20T14:29:01.597Z,13.13
2017-07-20T14:31:29.067Z,13.00
2017-07-20T14:33:56.524Z,11.80
2017-07-20T14:36:23.959Z,11.70
2017-07-20T14:38:51.409Z,11.68
2017-07-20T14:41:18.853Z,11.60
2017-07-20T14:43:46.295Z,12.32
2017-07-20T14:46:13.809Z,11.15
2017-07-20T14:48:41.255Z,11.60
2017-07-20T14:51:08.704Z,11.12
2017-07-20T14:53:36.131Z,9.90
2017-07-20T14:56:03.694Z,9.40
2017-07-20T14:58:31.168Z,8.27
2017-07-20T15:00:58.607Z,9.10
2017-07-20T15:03:26.072Z,9.70
2017-07-20T15:05:53.594Z,10.55
2017-07-20T15:08:22.059Z,12.02
2017-07-20T15:10:49.507Z,11.00
2017-07-20T15:13:16.964Z,11.23
2017-07-20T15:15:44.483Z,10.45
2017-07-20T15:18:11.927Z,11.23
2017-07-20T15:20:39.414Z,10.93
2017-07-20T15:23:07.623Z,11.12
2017-07-20T15:25:35.141Z,11.25
2017-07-20T15:28:02.604Z,11.95
2017-07-20T15:30:30.861Z,12.27
2017-07-20T15:32:58.478Z,13.57
2017-07-20T15:35:26.063Z,11.53
2017-07-20T15:37:53.666Z,12.07
2017-07-20T15:40:21.887Z,11.15
2017-07-20T15:42:49.340Z,10.60
2017-07-20T15:45:16.804Z,10.90
2017-07-20T15:47:44.257Z,10.38
2017-07-20T15:50:12.311Z,10.25
2017-07-20T15:52:40.383Z,9.52
2017-07-20T15:55:09.066Z,9.20
2017-07-20T15:57:37.136Z,10.45
2017-07-20T16:00:05.106Z,10.70
2017-07-20T16:02:33.122Z,11.93
2017-07-20T16:05:01.165Z,12.07
2017-07-20T16:07:30.095Z,12.43
2017-07-20T16:09:58.001Z,12.30
2017-07-20T16:12:25.968Z,14.27
2017-07-20T16:14:53.592Z,15.10
2017-07-20T16:17:22.213Z,15.57
2017-07-20T16:19:50.283Z,16.80
2017-07-20T16:22:18.282Z,16.60
2017-07-20T16:24:46.425Z,16.50
2017-07-20T16:27:14.399Z,17.15
2017-07-20T16:29:42.462Z,17.10
2017-07-20T16:32:10.544Z,16.70
2017-07-20T16:34:38.604Z,16.80
2017-07-20T16:37:06.690Z,16.70
2017-07-20T16:39:34.828Z,15.23
2017-07-20T16:42:02.820Z,15.55
2017-07-20T16:44:30.888Z,15.15
2017-07-20T16:46:59.060Z,15.47
2017-07-20T16:49:27.235Z,15.43
2017-07-20T16:51:55.509Z,15.70
2017-07-20T16:54:23.336Z,16.83
2017-07-20T16:56:51.446Z,15.70
2017-07-20T16:59:19.462Z,15.87
2017-07-20T17:01:47.382Z,16.33
2017-07-20T17:04:15.657Z,15.13
2017-07-20T17:06:44.344Z,16.00
2017-07-20T17:09:12.413Z,16.80
2017-07-20T17:11:40.487Z,15.80
2017-07-20T17:14:09.272Z,16.02
2017-07-20T17:16:37.238Z,17.80
2017-07-20T17:19:05.212Z,17.80
2017-07-20T17:21:33.994Z,16.95
2017-07-20T17:24:01.967Z,19.62
2017-07-20T17:26:29.822Z,19.98
2017-07-20T17:28:57.816Z,18.20
2017-07-20T17:31:26.789Z,18.83
2017-07-20T17:33:55.679Z,16.97
2017-07-20T17:36:23.647Z,18.12
2017-07-20T17:38:51.718Z,19.08
2017-07-20T17:41:19.790Z,18.27
2017-07-20T17:43:47.757Z,18.08
2017-07-20T17:46:15.829Z,17.92
2017-07-20T17:48:44.624Z,18.55
2017-07-20T17:51:12.635Z,18.92
2017-07-20T17:53:41.434Z,17.60
2017-07-20T17:56:09.954Z,18.27
2017-07-20T17:58:38.331Z,17.48
2017-07-20T18:01:08.147Z,17.42
2017-07-20T18:03:36.215Z,16.83
2017-07-20T18:06:03.913Z,20.90
2017-07-20T18:08:31.655Z,20.70
2017-07-20T18:10:59.127Z,19.90
2017-07-20T18:13:26.564Z,18.87
2017-07-20T18:15:54.020Z,18.65
2017-07-20T18:18:21.524Z,20.80
2017-07-20T18:20:48.978Z,18.80
2017-07-20T18:23:16.451Z,20.08
2017-07-20T18:25:43.891Z,22.87
2017-07-20T18:28:11.341Z,21.02
2017-07-20T18:30:38.810Z,18.52
2017-07-20T18:33:06.256Z,17.35
2017-07-20T18:35:33.717Z,19.10
2017-07-20T18:38:01.175Z,19.45
2017-07-20T18:40:28.631Z,18.37
2017-07-20T18:42:56.085Z,19.70
2017-07-20T18:45:23.619Z,19.73
2017-07-20T18:47:51.091Z,18.80
2017-07-20T18:50:18.531Z,17.90
2017-07-20T18:52:46.026Z,17.50
2017-07-20T18:55:13.546Z,19.02
2017-07-20T18:57:41.032Z,18.40
2017-07-20T19:00:08.560Z,19.00
2017-07-20T19:02:36.123Z,19.08
2017-07-20T19:05:03.710Z,18.98
2017-07-20T19:07:31.172Z,20.88
2017-07-20T19:09:58.614Z,17.40
2017-07-20T19:12:26.210Z,16.42
2017-07-20T19:14:54.483Z,18.02
2017-07-20T19:17:22.718Z,19.23
2017-07-20T19:19:50.292Z,18.17
2017-07-20T19:22:17.785Z,17.40
2017-07-20T19:24:46.034Z,16.20
2017-07-20T19:27:13.482Z,17.40
2017-07-20T19:29:40.936Z,18.02
2017-07-20T19:32:08.462Z,18.08
2017-07-20T19:34:36.027Z,18.40
2017-07-20T19:37:03.603Z,18.65
2017-07-20T19:39:31.063Z,18.25
2017-07-20T19:41:58.520Z,18.98
2017-07-20T19:44:25.993Z,20.85
2017-07-20T19:46:53.439Z,21.90
2017-07-20T19:49:20.952Z,23.05
2017-07-20T19:51:48.399Z,21.58
2017-07-20T19:54:15.871Z,21.25
2017-07-20T19:56:43.350Z,21.45
2017-07-20T19:59:11.632Z,22.27
2017-07-20T20:01:39.843Z,19.90
2017-07-20T20:04:07.287Z,18.83
2017-07-20T20:06:34.768Z,18.10
2017-07-20T20:09:02.211Z,18.50
2017-07-20T20:11:29.723Z,14.50
2017-07-20T20:13:58.046Z,13.80
2017-07-20T20:16:25.554Z,11.77
2017-07-20T20:18:53.078Z,10.90
2017-07-20T20:21:20.542Z,9.65
2017-07-20T20:23:48.077Z,9.17
2017-07-20T20:26:16.171Z,8.30
2017-07-20T20:28:43.603Z,8.50
2017-07-20T20:31:11.054Z,8.00
2017-07-20T20:33:38.544Z,10.30
2017-07-20T20:36:06.020Z,9.10
2017-07-20T20:38:33.561Z,8.52
2017-07-20T20:41:01.007Z,7.05
2017-07-20T20:43:28.547Z,6.80
2017-07-20T20:45:56.093Z,6.85
2017-07-20T20:48:23.606Z,6.90
2017-07-20T20:50:51.061Z,6.40
2017-07-20T20:53:18.491Z,6.90
2017-07-20T20:55:45.927Z,7.43
2017-07-20T20:58:13.369Z,7.32
2017-07-20T21:00:40.963Z,7.80
2017-07-20T21:03:08.409Z,7.70
2017-07-20T21:05:35.894Z,7.90
2017-07-20T21:08:03.336Z,8.57
2017-07-20T21:10:30.810Z,6.90
2017-07-20T21:12:58.243Z,7.47
2017-07-20T21:15:25.703Z,8.07
2017-07-20T21:17:53.155Z,7.60
2017-07-20T21:20:20.697Z,7.00
2017-07-20T21:22:48.185Z,7.50
2017-07-20T21:25:15.737Z,7.10
2017-07-20T21:27:43.182Z,6.80
2017-07-20T21:30:10.640Z,6.55
2017-07-20T21:32:38.080Z,7.05
2017-07-20T21:35:05.561Z,7.18
2017-07-20T21:37:33.013Z,8.05
2017-07-20T21:40:00.499Z,7.07
2017-07-20T21:42:27.987Z,7.25
2017-07-20T21:44:55.506Z,7.53
2017-07-20T21:47:23.022Z,7.60
2017-07-20T21:49:50.513Z,8.27
2017-07-20T21:52:18.038Z,8.00
2017-07-20T21:54:45.634Z,9.07
2017-07-20T21:57:13.086Z,9.60
2017-07-20T21:59:40.533Z,11.60
2017-07-20T22:02:07.970Z,11.10
2017-07-20T22:04:35.460Z,11.32
2017-07-20T22:07:02.919Z,12.90
2017-07-20T22:09:30.440Z,13.73
2017-07-20T22:11:57.943Z,13.55
2017-07-20T22:14:25.411Z,12.70
2017-07-20T22:16:53.610Z,13.55
2017-07-20T22:19:21.104Z,14.02
2017-07-20T22:21:48.557Z,13.65
2017-07-20T22:24:16.033Z,12.82
2017-07-20T22:26:43.492Z,14.25
2017-07-20T22:29:11.110Z,13.47
2017-07-20T22:31:38.675Z,13.05
2017-07-20T22:34:06.122Z,13.45
2017-07-20T22:36:33.621Z,14.33
2017-07-20T22:39:01.162Z,13.95
2017-07-20T22:41:28.642Z,14.63
2017-07-20T22:43:56.086Z,15.40
2017-07-20T22:46:23.545Z,14.60
2017-07-20T22:48:51.062Z,14.33
2017-07-20T22:51:18.627Z,15.70
2017-07-20T22:53:46.074Z,15.50
2017-07-20T22:56:13.624Z,14.77
2017-07-20T22:58:41.121Z,15.77
2017-07-20T23:01:08.580Z,14.70
2017-07-20T23:03:36.011Z,15.80
2017-07-20T23:06:03.613Z,17.10
2017-07-20T23:08:31.166Z,16.73
2017-07-20T23:10:58.591Z,16.90
2017-07-20T23:13:26.060Z,16.55
2017-07-20T23:15:53.722Z,17.42
2017-07-20T23:18:21.201Z,16.98
2017-07-20T23:20:48.747Z,17.73
2017-07-20T23:23:16.479Z,17.90
2017-07-20T23:25:43.913Z,19.35
2017-07-20T23:28:11.368Z,19.70
2017-07-20T23:30:38.867Z,20.37
2017-07-20T23:33:06.327Z,18.95
2017-07-20T23:35:33.877Z,19.10
2017-07-20T23:38:01.331Z,19.20
2017-07-20T23:40:28.943Z,19.83
2017-07-20T23:42:57.172Z,19.77
2017-07-20T23:45:24.617Z,19.92
2017-07-20T23:47:52.068Z,19.00
2017-07-20T23:50:19.543Z,19.35
2017-07-20T23:52:47.002Z,19.50
2017-07-20T23:55:14.488Z,21.98
2017-07-20T23:57:42.113Z,20.77
